createdAt,value
2023-02-11T00:04:49.542Z,8.11
2023-02-11T00:09:51.619Z,8.02
2023-02-11T00:14:53.609Z,8.00
2023-02-11T00:19:55.787Z,7.93
2023-02-11T00:24:57.950Z,7.85
2023-02-11T00:30:02.557Z,7.72
2023-02-11T00:35:06.317Z,7.61
2023-02-11T00:40:09.139Z,7.56
2023-02-11T00:45:11.651Z,7.52
2023-02-11T00:50:13.802Z,7.48
2023-02-11T00:55:17.204Z,7.41
2023-02-11T01:00:19.581Z,7.31
2023-02-11T01:05:21.995Z,7.23
2023-02-11T01:10:24.190Z,7.18
2023-02-11T01:15:27.675Z,7.14
2023-02-11T01:20:30.811Z,7.13
2023-02-11T01:25:32.905Z,7.11
2023-02-11T01:30:35.941Z,7.08
2023-02-11T01:35:40.613Z,7.08
2023-02-11T01:40:51.237Z,7.00
2023-02-11T01:46:04.521Z,6.97
2023-02-11T01:51:14.662Z,6.96
2023-02-11T01:56:37.183Z,6.96
2023-02-11T02:05:26.303Z,6.97
2023-02-11T02:10:30.434Z,6.97
2023-02-11T02:15:34.589Z,6.96
2023-02-11T02:20:41.146Z,6.95
2023-02-11T02:26:15.764Z,6.91
2023-02-11T02:31:47.278Z,6.87
2023-02-11T02:37:08.383Z,6.88
2023-02-11T02:42:10.684Z,6.91
2023-02-11T02:47:12.834Z,6.94
2023-02-11T02:52:35.001Z,6.91
2023-02-11T02:58:18.938Z,6.89
2023-02-11T03:03:42.683Z,6.80
2023-02-11T03:09:13.206Z,6.67
2023-02-11T03:14:18.581Z,6.59
2023-02-11T03:19:30.847Z,6.56
2023-02-11T03:24:39.321Z,6.52
2023-02-11T03:29:49.395Z,6.46
2023-02-11T03:34:56.477Z,6.42
2023-02-11T03:40:12.143Z,6.39
2023-02-11T03:45:18.823Z,6.35
2023-02-11T03:50:22.217Z,6.26
2023-02-11T03:55:26.749Z,6.21
2023-02-11T04:00:36.786Z,6.13
2023-02-11T04:05:39.372Z,6.07
2023-02-11T04:10:41.122Z,5.97
2023-02-11T04:15:43.256Z,5.95
2023-02-11T04:20:45.191Z,5.97
2023-02-11T04:25:47.134Z,5.97
2023-02-11T04:30:52.558Z,5.89
2023-02-11T04:35:54.631Z,5.85
2023-02-11T04:40:58.000Z,5.76
2023-02-11T04:46:00.065Z,5.71
2023-02-11T04:51:02.970Z,5.63
2023-02-11T04:56:05.188Z,5.58
2023-02-11T05:07:22.852Z,5.31
2023-02-11T05:12:25.272Z,5.22
2023-02-11T05:17:27.308Z,5.17
2023-02-11T05:22:29.295Z,5.11
2023-02-11T05:27:31.282Z,5.10
2023-02-11T05:32:33.596Z,5.17
2023-02-11T05:37:35.714Z,5.21
2023-02-11T05:42:38.090Z,5.23
2023-02-11T05:47:40.144Z,5.27
2023-02-11T05:52:42.304Z,5.31
2023-02-11T05:57:45.475Z,5.37
2023-02-11T06:02:47.545Z,5.38
2023-02-11T06:07:49.506Z,5.42
2023-02-11T06:12:51.506Z,5.48
2023-02-11T06:17:53.625Z,5.51
2023-02-11T06:22:55.642Z,5.51
2023-02-11T06:27:57.706Z,5.50
2023-02-11T06:32:59.720Z,5.39
2023-02-11T06:38:01.887Z,5.26
2023-02-11T06:43:04.033Z,5.16
2023-02-11T06:48:06.209Z,5.11
2023-02-11T06:53:08.372Z,5.09
2023-02-11T06:58:10.589Z,5.09
2023-02-11T07:03:12.951Z,5.11
2023-02-11T07:08:15.437Z,5.15
2023-02-11T07:13:17.490Z,5.17
2023-02-11T07:18:19.688Z,5.18
2023-02-11T07:23:21.654Z,5.24
2023-02-11T07:28:23.873Z,5.27
2023-02-11T07:33:26.085Z,5.27
2023-02-11T07:38:28.404Z,5.31
2023-02-11T07:43:31.563Z,5.35
2023-02-11T07:48:33.637Z,5.38
2023-02-11T07:53:35.859Z,5.38
2023-02-11T07:58:39.284Z,5.41
2023-02-11T08:03:43.124Z,5.48
2023-02-11T08:08:45.349Z,5.57
2023-02-11T08:13:48.167Z,6.41
2023-02-11T08:18:52.189Z,7.44
2023-02-11T08:23:54.692Z,8.34
2023-02-11T08:28:57.598Z,9.03
2023-02-11T08:34:00.011Z,9.56
2023-02-11T08:39:18.514Z,9.97
2023-02-11T08:44:22.183Z,10.37
2023-02-11T08:49:26.845Z,10.67
2023-02-11T08:54:28.970Z,10.99
2023-02-11T08:59:32.169Z,11.31
2023-02-11T09:04:34.133Z,11.57
2023-02-11T09:09:36.395Z,11.81
2023-02-11T09:14:38.712Z,12.03
2023-02-11T09:19:40.817Z,12.27
2023-02-11T09:24:42.776Z,12.49
2023-02-11T09:29:44.826Z,12.70
2023-02-11T09:34:46.904Z,12.88
2023-02-11T09:39:49.005Z,13.02
2023-02-11T09:44:52.609Z,13.13
2023-02-11T09:50:04.352Z,13.25
2023-02-11T09:55:23.184Z,13.48
2023-02-11T10:01:08.687Z,13.69
2023-02-11T10:06:20.274Z,14.07
2023-02-11T10:12:03.600Z,14.17
2023-02-11T10:17:12.505Z,14.33
2023-02-11T10:22:28.484Z,14.46
2023-02-11T10:27:35.991Z,14.56
2023-02-11T10:32:57.658Z,14.74
2023-02-11T10:38:00.090Z,14.95
2023-02-11T10:43:06.331Z,15.16
2023-02-11T10:48:40.216Z,15.26
2023-02-11T10:53:42.392Z,15.49
2023-02-11T10:58:54.058Z,15.67
2023-02-11T11:03:56.319Z,15.75
2023-02-11T11:08:58.261Z,15.84
2023-02-11T11:14:03.270Z,16.04
2023-02-11T11:19:08.063Z,16.16
2023-02-11T11:24:24.553Z,16.24
2023-02-11T11:29:50.324Z,16.28
2023-02-11T11:34:59.959Z,16.27
2023-02-11T11:40:17.346Z,16.31
2023-02-11T11:45:26.417Z,16.42
2023-02-11T11:50:37.091Z,16.18
2023-02-11T11:55:39.580Z,15.96
2023-02-11T12:01:20.956Z,16.07
2023-02-11T12:06:41.686Z,16.03
2023-02-11T12:11:52.584Z,16.12
2023-02-11T12:17:26.434Z,16.18
2023-02-11T12:22:43.072Z,15.90
2023-02-11T12:28:19.997Z,15.70
2023-02-11T12:33:30.167Z,15.68
2023-02-11T12:38:37.820Z,15.76
2023-02-11T12:43:42.548Z,15.84
2023-02-11T12:48:57.016Z,15.60
2023-02-11T12:54:26.993Z,15.59
2023-02-11T12:59:47.667Z,15.49
2023-02-11T13:04:57.425Z,15.74
2023-02-11T13:10:15.596Z,15.80
2023-02-11T13:15:18.111Z,15.77
2023-02-11T13:20:23.265Z,15.38
2023-02-11T13:25:40.951Z,15.37
2023-02-11T13:31:01.977Z,15.44
2023-02-11T13:36:04.834Z,15.36
2023-02-11T13:41:28.563Z,15.46
2023-02-11T13:46:50.852Z,15.74
2023-02-11T13:51:54.728Z,15.69
2023-02-11T13:57:23.211Z,15.67
2023-02-11T14:02:52.635Z,15.63
2023-02-11T14:08:28.166Z,15.48
2023-02-11T14:13:37.191Z,15.35
2023-02-11T14:18:48.910Z,15.23
2023-02-11T14:23:54.770Z,15.25
2023-02-11T14:29:18.228Z,15.10
2023-02-11T14:34:43.476Z,14.87
2023-02-11T14:40:02.952Z,14.82
2023-02-11T14:45:10.948Z,14.84
2023-02-11T14:50:26.126Z,14.85
2023-02-11T14:55:40.167Z,14.63
2023-02-11T15:01:09.109Z,14.54
2023-02-11T15:06:24.584Z,14.46
2023-02-11T15:11:31.020Z,14.37
2023-02-11T15:16:33.706Z,14.27
2023-02-11T15:21:36.756Z,14.13
2023-02-11T15:26:38.839Z,13.95
2023-02-11T15:31:40.922Z,13.77
2023-02-11T15:36:43.229Z,13.67
2023-02-11T15:41:45.150Z,13.61
2023-02-11T15:46:47.518Z,13.49
2023-02-11T15:51:50.744Z,13.45
2023-02-11T15:56:59.437Z,13.32
2023-02-11T16:02:35.212Z,13.27
2023-02-11T16:07:45.638Z,13.21
2023-02-11T16:13:06.254Z,13.16
2023-02-11T16:18:39.117Z,13.14
2023-02-11T16:23:43.198Z,13.09
2023-02-11T16:28:45.388Z,13.04
2023-02-11T16:33:47.428Z,12.91
2023-02-11T16:38:49.511Z,12.84
2023-02-11T16:43:51.677Z,12.77
2023-02-11T16:48:56.077Z,12.62
2023-02-11T16:53:58.280Z,12.53
2023-02-11T16:59:00.779Z,12.37
2023-02-11T17:04:03.359Z,12.28
2023-02-11T17:09:06.792Z,12.17
2023-02-11T17:14:08.971Z,12.07
2023-02-11T17:19:14.437Z,12.04
2023-02-11T17:24:16.594Z,12.03
2023-02-11T17:29:22.271Z,12.00
2023-02-11T17:34:24.314Z,11.98
2023-02-11T17:39:27.644Z,11.95
2023-02-11T17:44:29.635Z,11.93
2023-02-11T17:49:32.158Z,11.89
2023-02-11T17:54:34.175Z,11.85
2023-02-11T17:59:36.417Z,11.81
2023-02-11T18:04:38.538Z,11.78
2023-02-11T18:09:41.478Z,11.74
2023-02-11T18:14:43.537Z,11.70
2023-02-11T18:19:45.601Z,11.66
2023-02-11T18:24:53.231Z,11.62
2023-02-11T18:29:55.328Z,11.60
2023-02-11T18:34:57.370Z,11.57
2023-02-11T18:39:59.505Z,11.55
2023-02-11T18:45:01.601Z,11.52
2023-02-11T18:50:05.007Z,11.48
2023-02-11T18:55:07.867Z,11.46
2023-02-11T19:00:11.021Z,11.45
2023-02-11T19:05:13.059Z,11.41
2023-02-11T19:10:15.179Z,11.37
2023-02-11T19:15:17.323Z,11.27
2023-02-11T19:20:19.674Z,11.18
2023-02-11T19:25:21.829Z,11.10
2023-02-11T19:30:24.183Z,11.01
2023-02-11T19:35:26.040Z,10.94
2023-02-11T19:40:28.257Z,10.92
2023-02-11T19:45:30.311Z,10.85
2023-02-11T19:50:33.524Z,10.79
2023-02-11T19:55:35.962Z,10.72
2023-02-11T20:00:47.824Z,10.63
2023-02-11T20:05:50.749Z,10.51
2023-02-11T20:10:53.291Z,10.40
2023-02-11T20:15:55.745Z,10.28
2023-02-11T20:21:00.243Z,10.17
2023-02-11T20:26:07.713Z,10.08
2023-02-11T20:31:11.842Z,9.97
2023-02-11T20:36:18.384Z,9.90
2023-02-11T20:41:30.969Z,9.82
2023-02-11T20:46:34.374Z,9.77
2023-02-11T20:51:37.410Z,9.72
2023-02-11T20:56:39.658Z,9.66
2023-02-11T21:01:44.494Z,9.61
2023-02-11T21:06:50.101Z,9.55
2023-02-11T21:11:54.852Z,9.51
2023-02-11T21:17:09.954Z,9.45
2023-02-11T21:22:16.021Z,9.39
2023-02-11T21:27:18.378Z,9.35
2023-02-11T21:32:20.474Z,9.31
2023-02-11T21:37:23.293Z,9.23
2023-02-11T21:42:25.400Z,9.16
2023-02-11T21:47:27.644Z,9.09
2023-02-11T21:52:29.743Z,9.05
2023-02-11T21:57:32.042Z,9.00
2023-02-11T22:02:34.144Z,8.93
2023-02-11T22:07:36.681Z,8.88
2023-02-11T22:12:39.380Z,8.82
2023-02-11T22:17:41.504Z,8.76
2023-02-11T22:22:46.722Z,8.72
2023-02-11T22:28:00.157Z,8.67
2023-02-11T22:33:06.577Z,8.62
2023-02-11T22:38:08.821Z,8.57
2023-02-11T22:43:11.094Z,8.51
2023-02-11T22:48:13.121Z,8.47
2023-02-11T22:53:15.249Z,8.42
2023-02-11T22:58:19.029Z,8.36
2023-02-11T23:03:21.516Z,8.37
2023-02-11T23:08:23.963Z,8.36
2023-02-11T23:13:25.895Z,8.28
2023-02-11T23:18:27.840Z,8.20
2023-02-11T23:23:30.059Z,8.13
2023-02-11T23:28:32.321Z,8.06
2023-02-11T23:33:34.621Z,7.97
2023-02-11T23:38:36.738Z,7.90
2023-02-11T23:43:39.142Z,7.81
2023-02-11T23:48:41.213Z,7.74
2023-02-11T23:53:43.354Z,7.67
2023-02-11T23:58:48.289Z,7.62
